sensor_id;sensor_type;location;lat;lon;timestamp;pressure;altitude;pressure_sealevel;temperature;humidity
29379;BME280;16362;47.202;15.258;2022-12-10T00:01:29;94554.41;;;1.18;100.00
29379;BME280;16362;47.202;15.258;2022-12-10T00:03:56;94555.69;;;1.14;100.00
29379;BME280;16362;47.202;15.258;2022-12-10T00:06:24;94553.41;;;1.11;100.00
29379;BME280;16362;47.202;15.258;2022-12-10T00:08:51;94555.06;;;1.12;100.00
29379;BME280;16362;47.202;15.258;2022-12-10T00:11:18;94567.50;;;1.10;100.00
29379;BME280;16362;47.202;15.258;2022-12-10T00:13:45;94565.69;;;1.11;100.00
29379;BME280;16362;47.202;15.258;2022-12-10T00:16:13;94563.59;;;1.14;100.00
29379;BME280;16362;47.202;15.258;2022-12-10T00:18:40;94568.34;;;1.19;100.00
29379;BME280;16362;47.202;15.258;2022-12-10T00:21:11;94584.28;;;1.17;100.00
29379;BME280;16362;47.202;15.258;2022-12-10T00:23:38;94576.09;;;1.21;100.00
29379;BME280;16362;47.202;15.258;2022-12-10T00:26:06;94577.44;;;1.25;100.00
29379;BME280;16362;47.202;15.258;2022-12-10T00:28:33;94584.38;;;1.34;100.00
29379;BME280;16362;47.202;15.258;2022-12-10T00:31:04;94585.00;;;1.28;100.00
29379;BME280;16362;47.202;15.258;2022-12-10T00:33:31;94584.13;;;1.19;100.00
29379;BME280;16362;47.202;15.258;2022-12-10T00:36:05;94583.63;;;1.15;100.00
29379;BME280;16362;47.202;15.258;2022-12-10T00:38:33;94594.94;;;1.16;100.00
29379;BME280;16362;47.202;15.258;2022-12-10T00:40:59;94586.28;;;1.24;100.00
29379;BME280;16362;47.202;15.258;2022-12-10T00:43:26;94583.47;;;1.17;100.00
29379;BME280;16362;47.202;15.258;2022-12-10T00:45:53;94588.88;;;1.15;100.00
29379;BME280;16362;47.202;15.258;2022-12-10T00:48:20;94584.94;;;1.11;100.00
29379;BME280;16362;47.202;15.258;2022-12-10T00:50:56;94597.72;;;1.06;100.00
29379;BME280;16362;47.202;15.258;2022-12-10T00:53:24;94599.16;;;1.00;100.00
29379;BME280;16362;47.202;15.258;2022-12-10T00:55:51;94600.75;;;0.93;100.00
29379;BME280;16362;47.202;15.258;2022-12-10T00:58:18;94607.97;;;0.91;100.00
29379;BME280;16362;47.202;15.258;2022-12-10T01:00:45;94613.53;;;0.88;100.00
29379;BME280;16362;47.202;15.258;2022-12-10T01:03:12;94613.34;;;0.81;100.00
29379;BME280;16362;47.202;15.258;2022-12-10T01:05:38;94621.00;;;0.75;100.00
29379;BME280;16362;47.202;15.258;2022-12-10T01:08:05;94615.75;;;0.75;100.00
29379;BME280;16362;47.202;15.258;2022-12-10T01:10:32;94623.13;;;0.71;100.00
29379;BME280;16362;47.202;15.258;2022-12-10T01:12:58;94631.31;;;0.68;100.00
29379;BME280;16362;47.202;15.258;2022-12-10T01:15:25;94621.31;;;0.72;100.00
29379;BME280;16362;47.202;15.258;2022-12-10T01:17:51;94627.41;;;0.72;100.00
29379;BME280;16362;47.202;15.258;2022-12-10T01:20:18;94624.09;;;0.70;100.00
29379;BME280;16362;47.202;15.258;2022-12-10T01:22:44;94632.97;;;0.69;100.00
29379;BME280;16362;47.202;15.258;2022-12-10T01:25:11;94636.25;;;0.71;100.00
29379;BME280;16362;47.202;15.258;2022-12-10T01:27:37;94640.69;;;0.71;100.00
29379;BME280;16362;47.202;15.258;2022-12-10T01:30:04;94647.88;;;0.69;100.00
29379;BME280;16362;47.202;15.258;2022-12-10T01:32:31;94651.47;;;0.67;100.00
29379;BME280;16362;47.202;15.258;2022-12-10T01:34:58;94653.44;;;0.65;100.00
29379;BME280;16362;47.202;15.258;2022-12-10T01:37:24;94658.84;;;0.64;100.00
29379;BME280;16362;47.202;15.258;2022-12-10T01:39:51;94664.16;;;0.72;100.00
29379;BME280;16362;47.202;15.258;2022-12-10T01:42:18;94673.00;;;0.71;100.00
29379;BME280;16362;47.202;15.258;2022-12-10T01:47:11;94683.38;;;0.55;100.00
29379;BME280;16362;47.202;15.258;2022-12-10T01:49:39;94686.31;;;0.52;100.00
29379;BME280;16362;47.202;15.258;2022-12-10T01:52:07;94706.94;;;0.46;100.00
29379;BME280;16362;47.202;15.258;2022-12-10T01:54:35;94693.97;;;0.45;100.00
29379;BME280;16362;47.202;15.258;2022-12-10T01:57:06;94688.84;;;0.43;100.00
29379;BME280;16362;47.202;15.258;2022-12-10T01:59:34;94681.81;;;0.44;100.00
29379;BME280;16362;47.202;15.258;2022-12-10T02:04:33;94680.16;;;0.43;100.00
29379;BME280;16362;47.202;15.258;2022-12-10T02:07:21;94673.41;;;0.40;100.00
29379;BME280;16362;47.202;15.258;2022-12-10T02:12:44;94687.28;;;0.50;100.00
29379;BME280;16362;47.202;15.258;2022-12-10T02:15:13;94675.66;;;0.53;100.00
29379;BME280;16362;47.202;15.258;2022-12-10T02:17:45;94673.53;;;0.57;100.00
29379;BME280;16362;47.202;15.258;2022-12-10T02:20:14;94665.72;;;0.65;100.00
29379;BME280;16362;47.202;15.258;2022-12-10T02:22:46;94654.25;;;0.66;100.00
29379;BME280;16362;47.202;15.258;2022-12-10T02:25:15;94647.34;;;0.65;100.00
29379;BME280;16362;47.202;15.258;2022-12-10T02:30:09;94652.09;;;0.61;100.00
29379;BME280;16362;47.202;15.258;2022-12-10T02:32:37;94647.28;;;0.57;100.00
29379;BME280;16362;47.202;15.258;2022-12-10T02:35:11;94652.53;;;0.57;100.00
29379;BME280;16362;47.202;15.258;2022-12-10T02:37:40;94661.41;;;0.56;100.00
29379;BME280;16362;47.202;15.258;2022-12-10T02:40:13;94661.84;;;0.69;100.00
29379;BME280;16362;47.202;15.258;2022-12-10T02:42:42;94676.31;;;0.55;100.00
29379;BME280;16362;47.202;15.258;2022-12-10T02:45:10;94677.28;;;0.54;100.00
29379;BME280;16362;47.202;15.258;2022-12-10T02:47:37;94686.97;;;0.54;100.00
29379;BME280;16362;47.202;15.258;2022-12-10T02:50:05;94686.97;;;0.54;100.00
29379;BME280;16362;47.202;15.258;2022-12-10T02:52:32;94691.69;;;0.50;100.00
29379;BME280;16362;47.202;15.258;2022-12-10T02:54:59;94688.72;;;0.45;100.00
29379;BME280;16362;47.202;15.258;2022-12-10T02:57:34;94692.00;;;0.47;100.00
29379;BME280;16362;47.202;15.258;2022-12-10T03:02:31;94690.88;;;0.49;100.00
29379;BME280;16362;47.202;15.258;2022-12-10T03:05:05;94702.19;;;0.50;100.00
29379;BME280;16362;47.202;15.258;2022-12-10T03:07:38;94699.28;;;0.53;100.00
29379;BME280;16362;47.202;15.258;2022-12-10T03:10:07;94690.28;;;0.56;100.00
29379;BME280;16362;47.202;15.258;2022-12-10T03:12:45;94693.41;;;0.59;100.00
29379;BME280;16362;47.202;15.258;2022-12-10T03:15:13;94697.22;;;0.65;100.00
29379;BME280;16362;47.202;15.258;2022-12-10T03:17:40;94696.25;;;0.66;100.00
29379;BME280;16362;47.202;15.258;2022-12-10T03:20:10;94703.63;;;0.62;100.00
29379;BME280;16362;47.202;15.258;2022-12-10T03:22:38;94697.84;;;0.59;100.00
29379;BME280;16362;47.202;15.258;2022-12-10T03:25:06;94707.22;;;0.61;100.00
29379;BME280;16362;47.202;15.258;2022-12-10T03:27:33;94711.19;;;0.65;100.00
29379;BME280;16362;47.202;15.258;2022-12-10T03:30:03;94711.38;;;0.64;100.00
29379;BME280;16362;47.202;15.258;2022-12-10T03:32:29;94707.06;;;0.63;100.00
29379;BME280;16362;47.202;15.258;2022-12-10T03:34:57;94715.91;;;0.62;100.00
29379;BME280;16362;47.202;15.258;2022-12-10T03:37:25;94715.91;;;0.62;100.00
29379;BME280;16362;47.202;15.258;2022-12-10T03:39:52;94721.19;;;0.62;100.00
29379;BME280;16362;47.202;15.258;2022-12-10T03:42:19;94717.56;;;0.63;100.00
29379;BME280;16362;47.202;15.258;2022-12-10T03:44:48;94721.56;;;0.67;100.00
29379;BME280;16362;47.202;15.258;2022-12-10T03:47:15;94722.91;;;0.71;100.00
29379;BME280;16362;47.202;15.258;2022-12-10T03:49:42;94720.59;;;0.68;100.00
29379;BME280;16362;47.202;15.258;2022-12-10T03:52:09;94726.81;;;0.67;100.00
29379;BME280;16362;47.202;15.258;2022-12-10T03:54:36;94729.13;;;0.70;100.00
29379;BME280;16362;47.202;15.258;2022-12-10T03:57:03;94736.03;;;0.71;100.00
29379;BME280;16362;47.202;15.258;2022-12-10T03:59:29;94733.41;;;0.71;100.00
29379;BME280;16362;47.202;15.258;2022-12-10T04:01:56;94725.38;;;0.73;100.00
29379;BME280;16362;47.202;15.258;2022-12-10T04:04:22;94724.41;;;0.74;100.00
29379;BME280;16362;47.202;15.258;2022-12-10T04:06:49;94719.16;;;0.74;100.00
29379;BME280;16362;47.202;15.258;2022-12-10T04:09:15;94715.19;;;0.70;100.00
29379;BME280;16362;47.202;15.258;2022-12-10T04:11:42;94710.91;;;0.69;100.00
29379;BME280;16362;47.202;15.258;2022-12-10T04:14:10;94714.06;;;0.72;100.00
29379;BME280;16362;47.202;15.258;2022-12-10T04:16:55;94709.44;;;0.74;100.00
29379;BME280;16362;47.202;15.258;2022-12-10T04:19:23;94709.16;;;0.77;100.00
29379;BME280;16362;47.202;15.258;2022-12-10T04:21:49;94715.25;;;0.78;100.00
29379;BME280;16362;47.202;15.258;2022-12-10T04:24:35;94717.94;;;0.86;100.00
29379;BME280;16362;47.202;15.258;2022-12-10T04:27:21;94720.41;;;0.88;100.00
29379;BME280;16362;47.202;15.258;2022-12-10T04:29:49;94720.72;;;0.84;100.00
29379;BME280;16362;47.202;15.258;2022-12-10T04:32:16;94719.91;;;0.84;100.00
29379;BME280;16362;47.202;15.258;2022-12-10T04:34:42;94720.41;;;0.88;100.00
29379;BME280;16362;47.202;15.258;2022-12-10T04:37:09;94727.31;;;0.89;100.00
29379;BME280;16362;47.202;15.258;2022-12-10T04:39:37;94731.13;;;0.94;100.00
29379;BME280;16362;47.202;15.258;2022-12-10T04:42:04;94734.72;;;0.93;100.00
29379;BME280;16362;47.202;15.258;2022-12-10T04:44:31;94741.19;;;0.99;100.00
29379;BME280;16362;47.202;15.258;2022-12-10T04:46:57;94738.84;;;0.96;100.00
29379;BME280;16362;47.202;15.258;2022-12-10T04:49:24;94740.13;;;0.92;100.00
29379;BME280;16362;47.202;15.258;2022-12-10T04:51:51;94744.72;;;0.90;100.00
29379;BME280;16362;47.202;15.258;2022-12-10T04:54:19;94742.09;;;0.90;100.00
29379;BME280;16362;47.202;15.258;2022-12-10T04:56:45;94740.28;;;0.90;100.00
29379;BME280;16362;47.202;15.258;2022-12-10T04:59:12;94744.25;;;0.94;100.00
29379;BME280;16362;47.202;15.258;2022-12-10T05:01:39;94749.66;;;0.93;100.00
29379;BME280;16362;47.202;15.258;2022-12-10T05:04:07;94755.22;;;0.90;100.00
29379;BME280;16362;47.202;15.258;2022-12-10T05:06:34;94757.00;;;0.89;100.00
29379;BME280;16362;47.202;15.258;2022-12-10T05:09:01;94755.88;;;0.92;100.00
29379;BME280;16362;47.202;15.258;2022-12-10T05:11:28;94766.75;;;0.97;100.00
29379;BME280;16362;47.202;15.258;2022-12-10T05:13:55;94772.03;;;0.97;100.00
29379;BME280;16362;47.202;15.258;2022-12-10T05:16:23;94776.31;;;0.98;100.00
29379;BME280;16362;47.202;15.258;2022-12-10T05:18:49;94778.25;;;0.96;100.00
29379;BME280;16362;47.202;15.258;2022-12-10T05:21:17;94781.88;;;0.95;100.00
29379;BME280;16362;47.202;15.258;2022-12-10T05:23:45;94787.78;;;0.97;100.00
29379;BME280;16362;47.202;15.258;2022-12-10T05:26:19;94788.31;;;1.00;100.00
29379;BME280;16362;47.202;15.258;2022-12-10T05:28:49;94781.94;;;1.03;100.00
29379;BME280;16362;47.202;15.258;2022-12-10T05:31:18;94781.94;;;1.03;100.00
29379;BME280;16362;47.202;15.258;2022-12-10T05:33:45;94766.16;;;1.03;100.00
29379;BME280;16362;47.202;15.258;2022-12-10T05:36:13;94767.34;;;1.09;100.00
29379;BME280;16362;47.202;15.258;2022-12-10T05:38:40;94769.50;;;1.13;100.00
29379;BME280;16362;47.202;15.258;2022-12-10T05:41:08;94762.47;;;1.14;100.00
29379;BME280;16362;47.202;15.258;2022-12-10T05:43:36;94758.19;;;1.13;100.00
29379;BME280;16362;47.202;15.258;2022-12-10T05:46:06;94757.38;;;1.12;100.00
29379;BME280;16362;47.202;15.258;2022-12-10T05:48:34;94757.72;;;1.17;100.00
29379;BME280;16362;47.202;15.258;2022-12-10T05:51:11;94753.81;;;1.22;100.00
29379;BME280;16362;47.202;15.258;2022-12-10T05:53:38;94768.75;;;1.21;100.00
29379;BME280;16362;47.202;15.258;2022-12-10T05:56:15;94762.81;;;1.19;100.00
29379;BME280;16362;47.202;15.258;2022-12-10T05:58:43;94760.34;;;1.17;100.00
29379;BME280;16362;47.202;15.258;2022-12-10T06:01:11;94760.88;;;1.21;100.00
29379;BME280;16362;47.202;15.258;2022-12-10T06:03:38;94749.22;;;1.24;100.00
29379;BME280;16362;47.202;15.258;2022-12-10T06:06:04;94740.66;;;1.22;100.00
29379;BME280;16362;47.202;15.258;2022-12-10T06:08:31;94750.88;;;1.25;100.00
29379;BME280;16362;47.202;15.258;2022-12-10T06:11:09;94747.13;;;1.27;100.00
29379;BME280;16362;47.202;15.258;2022-12-10T06:13:37;94755.91;;;1.44;100.00
29379;BME280;16362;47.202;15.258;2022-12-10T06:16:07;94754.13;;;1.45;100.00
29379;BME280;16362;47.202;15.258;2022-12-10T06:18:34;94755.47;;;1.49;100.00
29379;BME280;16362;47.202;15.258;2022-12-10T06:21:04;94757.38;;;1.39;100.00
29379;BME280;16362;47.202;15.258;2022-12-10T06:23:31;94764.25;;;1.31;100.00
29379;BME280;16362;47.202;15.258;2022-12-10T06:25:57;94753.50;;;1.25;100.00
29379;BME280;16362;47.202;15.258;2022-12-10T06:28:24;94762.69;;;1.21;100.00
29379;BME280;16362;47.202;15.258;2022-12-10T06:30:50;94762.16;;;1.17;100.00
29379;BME280;16362;47.202;15.258;2022-12-10T06:33:17;94758.56;;;1.18;100.00
29379;BME280;16362;47.202;15.258;2022-12-10T06:35:44;94748.22;;;1.16;100.00
29379;BME280;16362;47.202;15.258;2022-12-10T06:38:10;94738.34;;;1.18;100.00
29379;BME280;16362;47.202;15.258;2022-12-10T06:40:38;94737.53;;;1.18;100.00
29379;BME280;16362;47.202;15.258;2022-12-10T06:43:05;94749.53;;;1.21;100.00
29379;BME280;16362;47.202;15.258;2022-12-10T06:45:32;94744.13;;;1.22;100.00
29379;BME280;16362;47.202;15.258;2022-12-10T06:47:58;94739.69;;;1.23;100.00
29379;BME280;16362;47.202;15.258;2022-12-10T06:50:25;94738.88;;;1.22;100.00
29379;BME280;16362;47.202;15.258;2022-12-10T06:52:51;94749.22;;;1.24;100.00
29379;BME280;16362;47.202;15.258;2022-12-10T06:55:20;94745.31;;;1.28;100.00
29379;BME280;16362;47.202;15.258;2022-12-10T06:57:46;94744.34;;;1.29;100.00
29379;BME280;16362;47.202;15.258;2022-12-10T07:00:13;94738.09;;;1.30;100.00
29379;BME280;16362;47.202;15.258;2022-12-10T07:02:47;94735.44;;;1.30;100.00
29379;BME280;16362;47.202;15.258;2022-12-10T07:05:13;94732.53;;;1.33;100.00
29379;BME280;16362;47.202;15.258;2022-12-10T07:07:40;94731.56;;;1.34;100.00
29379;BME280;16362;47.202;15.258;2022-12-10T07:10:07;94736.66;;;1.36;100.00
29379;BME280;16362;47.202;15.258;2022-12-10T07:12:34;94733.03;;;1.37;100.00
29379;BME280;16362;47.202;15.258;2022-12-10T07:15:00;94742.41;;;1.39;100.00
29379;BME280;16362;47.202;15.258;2022-12-10T07:17:27;94731.41;;;1.36;100.00
29379;BME280;16362;47.202;15.258;2022-12-10T07:19:53;94740.63;;;1.40;100.00
29379;BME280;16362;47.202;15.258;2022-12-10T07:22:20;94741.44;;;1.40;100.00
29379;BME280;16362;47.202;15.258;2022-12-10T07:24:47;94739.19;;;1.45;100.00
29379;BME280;16362;47.202;15.258;2022-12-10T07:27:14;94743.94;;;1.50;100.00
29379;BME280;16362;47.202;15.258;2022-12-10T07:29:41;94745.78;;;1.49;100.00
29379;BME280;16362;47.202;15.258;2022-12-10T07:32:07;94738.66;;;1.42;100.00
29379;BME280;16362;47.202;15.258;2022-12-10T07:34:34;94740.50;;;1.49;100.00
29379;BME280;16362;47.202;15.258;2022-12-10T07:37:01;94742.16;;;1.50;100.00
29379;BME280;16362;47.202;15.258;2022-12-10T07:39:27;94746.75;;;1.48;100.00
29379;BME280;16362;47.202;15.258;2022-12-10T07:41:54;94738.44;;;1.35;100.00
29379;BME280;16362;47.202;15.258;2022-12-10T07:44:21;94742.94;;;1.43;100.00
29379;BME280;16362;47.202;15.258;2022-12-10T07:46:49;94739.19;;;1.45;100.00
29379;BME280;16362;47.202;15.258;2022-12-10T07:49:16;94747.38;;;1.42;100.00
29379;BME280;16362;47.202;15.258;2022-12-10T07:51:46;94743.09;;;1.41;100.00
29379;BME280;16362;47.202;15.258;2022-12-10T07:54:13;94735.22;;;1.41;100.00
29379;BME280;16362;47.202;15.258;2022-12-10T07:56:40;94742.94;;;1.43;100.00
29379;BME280;16362;47.202;15.258;2022-12-10T07:59:06;94734.06;;;1.44;100.00
29379;BME280;16362;47.202;15.258;2022-12-10T08:01:33;94745.09;;;1.47;100.00
29379;BME280;16362;47.202;15.258;2022-12-10T08:03:59;94734.44;;;1.49;100.00
29379;BME280;16362;47.202;15.258;2022-12-10T08:06:27;94736.59;;;1.54;100.00
29379;BME280;16362;47.202;15.258;2022-12-10T08:08:54;94743.34;;;1.56;100.00
29379;BME280;16362;47.202;15.258;2022-12-10T08:11:21;94743.19;;;1.58;100.00
29379;BME280;16362;47.202;15.258;2022-12-10T08:13:48;94743.69;;;1.61;100.00
29379;BME280;16362;47.202;15.258;2022-12-10T08:16:22;94741.28;;;1.68;100.00
29379;BME280;16362;47.202;15.258;2022-12-10T08:18:51;94743.25;;;1.74;100.00
29379;BME280;16362;47.202;15.258;2022-12-10T08:21:19;94748.56;;;1.82;100.00
29379;BME280;16362;47.202;15.258;2022-12-10T08:23:46;94749.84;;;1.78;100.00
29379;BME280;16362;47.202;15.258;2022-12-10T08:26:14;94754.81;;;1.81;100.00
29379;BME280;16362;47.202;15.258;2022-12-10T08:28:40;94753.78;;;1.74;100.00
29379;BME280;16362;47.202;15.258;2022-12-10T08:31:08;94759.34;;;1.71;100.00
29379;BME280;16362;47.202;15.258;2022-12-10T08:33:36;94755.03;;;1.62;100.00
29379;BME280;16362;47.202;15.258;2022-12-10T08:36:04;94761.50;;;1.76;100.00
29379;BME280;16362;47.202;15.258;2022-12-10T08:38:30;94760.00;;;1.73;100.00
29379;BME280;16362;47.202;15.258;2022-12-10T08:40:57;94767.25;;;1.71;100.00
29379;BME280;16362;47.202;15.258;2022-12-10T08:43:24;94769.19;;;1.69;100.00
29379;BME280;16362;47.202;15.258;2022-12-10T08:45:50;94766.56;;;1.69;100.00
29379;BME280;16362;47.202;15.258;2022-12-10T08:48:17;94773.81;;;1.67;100.00
29379;BME280;16362;47.202;15.258;2022-12-10T08:50:44;94773.81;;;1.67;100.00
29379;BME280;16362;47.202;15.258;2022-12-10T08:53:11;94775.47;;;1.68;100.00
29379;BME280;16362;47.202;15.258;2022-12-10T08:55:38;94783.50;;;1.66;100.00
29379;BME280;16362;47.202;15.258;2022-12-10T08:58:12;94777.59;;;1.73;100.00
29379;BME280;16362;47.202;15.258;2022-12-10T09:00:39;94777.09;;;1.69;100.00
29379;BME280;16362;47.202;15.258;2022-12-10T09:03:05;94778.44;;;1.73;100.00
29379;BME280;16362;47.202;15.258;2022-12-10T09:05:33;94774.81;;;1.74;100.00
29379;BME280;16362;47.202;15.258;2022-12-10T09:08:00;94767.63;;;1.76;100.00
29379;BME280;16362;47.202;15.258;2022-12-10T09:10:27;94771.75;;;1.79;100.00
29379;BME280;16362;47.202;15.258;2022-12-10T09:12:53;94774.22;;;1.80;100.00
29379;BME280;16362;47.202;15.258;2022-12-10T09:15:28;94781.41;;;1.78;100.00
29379;BME280;16362;47.202;15.258;2022-12-10T09:17:54;94777.00;;;1.79;100.00
29379;BME280;16362;47.202;15.258;2022-12-10T09:20:21;94776.16;;;1.78;100.00
29379;BME280;16362;47.202;15.258;2022-12-10T09:22:48;94769.75;;;1.81;100.00
29379;BME280;16362;47.202;15.258;2022-12-10T09:25:14;94764.84;;;1.86;100.00
29379;BME280;16362;47.202;15.258;2022-12-10T09:27:43;94768.00;;;1.90;100.00
29379;BME280;16362;47.202;15.258;2022-12-10T09:30:10;94769.34;;;1.94;100.00
29379;BME280;16362;47.202;15.258;2022-12-10T09:32:37;94767.88;;;1.99;100.00
29379;BME280;16362;47.202;15.258;2022-12-10T09:35:04;94766.41;;;2.05;100.00
29379;BME280;16362;47.202;15.258;2022-12-10T09:37:30;94760.63;;;2.01;100.00
29379;BME280;16362;47.202;15.258;2022-12-10T09:39:57;94760.16;;;1.98;100.00
29379;BME280;16362;47.202;15.258;2022-12-10T09:48:21;94751.44;;;2.06;100.00
29379;BME280;16362;47.202;15.258;2022-12-10T09:50:33;94748.66;;;2.07;100.00
29379;BME280;16362;47.202;15.258;2022-12-10T09:53:02;94736.84;;;2.11;100.00
29379;BME280;16362;47.202;15.258;2022-12-10T09:57:59;94732.91;;;2.24;100.00
29379;BME280;16362;47.202;15.258;2022-12-10T10:00:40;94733.09;;;2.22;100.00
29379;BME280;16362;47.202;15.258;2022-12-10T10:03:11;94736.88;;;2.28;100.00
29379;BME280;16362;47.202;15.258;2022-12-10T10:05:43;94731.31;;;2.39;100.00
29379;BME280;16362;47.202;15.258;2022-12-10T10:10:40;94722.25;;;2.42;100.00
29379;BME280;16362;47.202;15.258;2022-12-10T10:15:36;94718.28;;;2.21;100.00
29379;BME280;16362;47.202;15.258;2022-12-10T10:20:48;94712.19;;;2.21;100.00
29379;BME280;16362;47.202;15.258;2022-12-10T10:23:15;94706.94;;;2.21;100.00
29379;BME280;16362;47.202;15.258;2022-12-10T10:25:42;94702.94;;;2.08;100.00
29379;BME280;16362;47.202;15.258;2022-12-10T10:28:11;94706.41;;;2.17;100.00
29379;BME280;16362;47.202;15.258;2022-12-10T10:30:39;94706.09;;;2.20;100.00
29379;BME280;16362;47.202;15.258;2022-12-10T10:33:09;94691.78;;;2.14;100.00
29379;BME280;16362;47.202;15.258;2022-12-10T10:35:49;94677.94;;;2.12;100.00
29379;BME280;16362;47.202;15.258;2022-12-10T10:38:17;94668.25;;;2.13;100.00
29379;BME280;16362;47.202;15.258;2022-12-10T10:40:46;94677.94;;;2.12;100.00
29379;BME280;16362;47.202;15.258;2022-12-10T10:43:18;94664.63;;;2.14;100.00
29379;BME280;16362;47.202;15.258;2022-12-10T10:45:56;94667.09;;;2.15;100.00
29379;BME280;16362;47.202;15.258;2022-12-10T10:48:25;94659.03;;;2.17;100.00
29379;BME280;16362;47.202;15.258;2022-12-10T10:50:53;94664.47;;;2.07;100.00
29379;BME280;16362;47.202;15.258;2022-12-10T10:56:06;94656.06;;;2.12;100.00
29379;BME280;16362;47.202;15.258;2022-12-10T10:58:34;94650.28;;;2.08;100.00
29379;BME280;16362;47.202;15.258;2022-12-10T11:01:05;94650.97;;;2.18;100.00
29379;BME280;16362;47.202;15.258;2022-12-10T11:03:33;94647.72;;;2.25;100.00
29379;BME280;16362;47.202;15.258;2022-12-10T11:06:02;94646.41;;;2.29;100.00
29379;BME280;16362;47.202;15.258;2022-12-10T11:08:31;94643.59;;;2.30;100.00
29379;BME280;16362;47.202;15.258;2022-12-10T11:11:03;94651.31;;;2.15;100.00
29379;BME280;16362;47.202;15.258;2022-12-10T11:13:31;94650.34;;;2.25;100.00
29379;BME280;16362;47.202;15.258;2022-12-10T11:18:40;94632.22;;;2.30;100.00
29379;BME280;16362;47.202;15.258;2022-12-10T11:23:41;94632.22;;;2.30;100.00
29379;BME280;16362;47.202;15.258;2022-12-10T11:26:11;94626.66;;;2.33;100.00
29379;BME280;16362;47.202;15.258;2022-12-10T11:28:46;94623.53;;;2.38;100.00
29379;BME280;16362;47.202;15.258;2022-12-10T11:33:47;94623.53;;;2.38;100.00
29379;BME280;16362;47.202;15.258;2022-12-10T11:41:23;94626.50;;;2.34;100.00
29379;BME280;16362;47.202;15.258;2022-12-10T12:07:29;94604.28;;;2.53;100.00
29379;BME280;16362;47.202;15.258;2022-12-10T12:15:40;94610.19;;;2.56;100.00
29379;BME280;16362;47.202;15.258;2022-12-10T12:18:13;94610.19;;;2.56;100.00
29379;BME280;16362;47.202;15.258;2022-12-10T12:20:55;94613.97;;;2.61;100.00
29379;BME280;16362;47.202;15.258;2022-12-10T12:23:42;94616.44;;;2.63;100.00
29379;BME280;16362;47.202;15.258;2022-12-10T12:26:11;94607.53;;;2.56;100.00
29379;BME280;16362;47.202;15.258;2022-12-10T12:29:23;94614.47;;;2.57;100.00
29379;BME280;16362;47.202;15.258;2022-12-10T12:31:30;94616.47;;;2.55;100.00
29379;BME280;16362;47.202;15.258;2022-12-10T12:34:05;94614.13;;;2.60;100.00
29379;BME280;16362;47.202;15.258;2022-12-10T12:36:37;94610.69;;;2.59;100.00
29379;BME280;16362;47.202;15.258;2022-12-10T12:39:16;94612.66;;;2.57;100.00
29379;BME280;16362;47.202;15.258;2022-12-10T12:44:15;94612.81;;;2.72;100.00
29379;BME280;16362;47.202;15.258;2022-12-10T12:46:45;94612.66;;;2.74;100.00
29379;BME280;16362;47.202;15.258;2022-12-10T12:51:45;94614.47;;;2.65;100.00
29379;BME280;16362;47.202;15.258;2022-12-10T12:54:12;94619.72;;;2.65;100.00
29379;BME280;16362;47.202;15.258;2022-12-10T13:04:46;94609.34;;;2.63;100.00
29379;BME280;16362;47.202;15.258;2022-12-10T13:09:44;94599.97;;;2.61;100.00
29379;BME280;16362;47.202;15.258;2022-12-10T13:17:38;94610.50;;;2.61;100.00
29379;BME280;16362;47.202;15.258;2022-12-10T13:20:52;94608.72;;;2.61;100.00
29379;BME280;16362;47.202;15.258;2022-12-10T13:22:56;94616.75;;;2.60;100.00
29379;BME280;16362;47.202;15.258;2022-12-10T13:34:34;94621.56;;;2.56;100.00
29379;BME280;16362;47.202;15.258;2022-12-10T13:39:11;94609.53;;;2.62;100.00
29379;BME280;16362;47.202;15.258;2022-12-10T13:41:40;94619.72;;;2.65;100.00
29379;BME280;16362;47.202;15.258;2022-12-10T13:44:39;94621.53;;;2.64;100.00
29379;BME280;16362;47.202;15.258;2022-12-10T13:49:54;94606.56;;;2.65;100.00
29379;BME280;16362;47.202;15.258;2022-12-10T13:52:26;94610.03;;;2.65;100.00
29379;BME280;16362;47.202;15.258;2022-12-10T14:00:22;94603.28;;;2.63;100.00
29379;BME280;16362;47.202;15.258;2022-12-10T14:05:30;94605.56;;;2.66;100.00
29379;BME280;16362;47.202;15.258;2022-12-10T14:08:06;94607.56;;;2.64;100.00
29379;BME280;16362;47.202;15.258;2022-12-10T14:10:38;94605.56;;;2.66;100.00
29379;BME280;16362;47.202;15.258;2022-12-10T14:13:04;94603.75;;;2.66;100.00
29379;BME280;16362;47.202;15.258;2022-12-10T14:15:31;94604.41;;;2.68;100.00
29379;BME280;16362;47.202;15.258;2022-12-10T14:18:02;94601.13;;;2.66;100.00
29379;BME280;16362;47.202;15.258;2022-12-10T14:20:32;94607.56;;;2.64;100.00
29379;BME280;16362;47.202;15.258;2022-12-10T14:23:04;94605.59;;;2.58;100.00
29379;BME280;16362;47.202;15.258;2022-12-10T14:25:50;94605.91;;;2.63;100.00
29379;BME280;16362;47.202;15.258;2022-12-10T14:28:18;94606.22;;;2.60;100.00
29379;BME280;16362;47.202;15.258;2022-12-10T14:30:45;94614.13;;;2.60;100.00
29379;BME280;16362;47.202;15.258;2022-12-10T14:33:14;94612.84;;;2.64;100.00
29379;BME280;16362;47.202;15.258;2022-12-10T14:35:42;94614.63;;;2.55;100.00
29379;BME280;16362;47.202;15.258;2022-12-10T14:38:12;94606.41;;;2.50;100.00
29379;BME280;16362;47.202;15.258;2022-12-10T14:40:43;94613.81;;;2.38;100.00
29379;BME280;16362;47.202;15.258;2022-12-10T14:43:13;94603.78;;;2.42;100.00
29379;BME280;16362;47.202;15.258;2022-12-10T14:45:59;94615.78;;;2.36;100.00
29379;BME280;16362;47.202;15.258;2022-12-10T14:48:26;94613.97;;;2.36;100.00
29379;BME280;16362;47.202;15.258;2022-12-10T14:50:55;94617.63;;;2.35;100.00
29379;BME280;16362;47.202;15.258;2022-12-10T14:53:23;94615.97;;;2.34;100.00
29379;BME280;16362;47.202;15.258;2022-12-10T14:56:02;94616.94;;;2.33;100.00